createdAt,value
2022-10-30T00:00:16.762Z,12.55
2022-10-30T00:01:16.824Z,12.50
2022-10-30T00:02:16.829Z,12.54
2022-10-30T00:03:16.826Z,12.55
2022-10-30T00:04:16.744Z,12.43
2022-10-30T00:05:16.710Z,12.45
2022-10-30T00:07:17.693Z,12.43
2022-10-30T00:08:16.688Z,12.54
2022-10-30T00:09:16.717Z,12.53
2022-10-30T00:10:16.667Z,12.53
2022-10-30T00:11:16.658Z,12.45
2022-10-30T00:12:16.655Z,12.47
2022-10-30T00:13:16.639Z,12.42
2022-10-30T00:14:16.675Z,12.50
2022-10-30T00:15:16.632Z,12.46
2022-10-30T00:16:16.617Z,12.36
2022-10-30T00:17:16.616Z,12.38
2022-10-30T00:18:16.601Z,12.38
2022-10-30T00:19:16.623Z,12.46
2022-10-30T00:20:16.579Z,12.40
2022-10-30T00:21:16.580Z,12.45
2022-10-30T00:22:16.565Z,12.33
2022-10-30T00:23:16.562Z,12.36
2022-10-30T00:24:16.582Z,12.42
2022-10-30T00:25:16.541Z,12.39
2022-10-30T00:26:16.543Z,12.36
2022-10-30T00:27:16.530Z,12.50
2022-10-30T00:28:16.528Z,12.50
2022-10-30T00:29:16.535Z,12.40
2022-10-30T00:30:16.529Z,12.40
2022-10-30T00:31:16.488Z,12.42
2022-10-30T00:32:16.485Z,12.42
2022-10-30T00:33:16.477Z,12.33
2022-10-30T00:34:16.504Z,12.40
2022-10-30T00:35:16.460Z,12.43
2022-10-30T00:36:16.454Z,12.35
2022-10-30T00:37:16.445Z,12.35
2022-10-30T00:38:16.430Z,12.38
2022-10-30T00:39:16.451Z,12.25
2022-10-30T00:40:16.418Z,12.22
2022-10-30T00:41:16.415Z,12.24
2022-10-30T00:42:16.407Z,12.22
2022-10-30T00:43:16.406Z,12.28
2022-10-30T00:44:16.432Z,12.32
2022-10-30T00:45:16.380Z,12.25
2022-10-30T00:46:16.379Z,12.24
2022-10-30T00:47:16.356Z,12.20
2022-10-30T00:48:16.358Z,12.32
2022-10-30T00:49:16.381Z,12.28
2022-10-30T00:50:16.483Z,12.22
2022-10-30T00:51:16.329Z,12.27
2022-10-30T00:52:16.316Z,12.25
2022-10-30T00:53:16.318Z,12.20
2022-10-30T00:54:16.307Z,12.20
2022-10-30T00:55:16.322Z,12.13
2022-10-30T00:56:16.282Z,12.14
2022-10-30T00:57:17.273Z,12.17
2022-10-30T00:58:16.263Z,12.10
2022-10-30T00:59:16.261Z,12.10
2022-10-30T01:00:16.275Z,12.15
2022-10-30T01:01:16.307Z,12.09
2022-10-30T01:02:16.364Z,12.09
2022-10-30T01:03:16.232Z,12.15
2022-10-30T01:04:16.218Z,12.14
2022-10-30T01:05:16.244Z,12.17
2022-10-30T01:06:16.200Z,12.13
2022-10-30T01:07:16.209Z,12.21
2022-10-30T01:08:16.220Z,12.14
2022-10-30T01:09:16.316Z,12.15
2022-10-30T01:10:16.205Z,12.15
2022-10-30T01:11:16.180Z,12.15
2022-10-30T01:12:16.153Z,12.18
2022-10-30T01:13:16.145Z,12.18
2022-10-30T01:14:16.146Z,12.22
2022-10-30T01:15:16.166Z,12.21
2022-10-30T01:16:16.117Z,12.24
2022-10-30T01:17:16.122Z,12.28
2022-10-30T01:18:16.100Z,12.30
2022-10-30T01:19:16.097Z,12.27
2022-10-30T01:20:16.117Z,12.27
2022-10-30T01:21:16.079Z,12.21
2022-10-30T01:22:16.066Z,12.25
2022-10-30T01:23:16.061Z,12.22
2022-10-30T01:24:16.067Z,12.18
2022-10-30T01:25:16.080Z,12.22
2022-10-30T01:26:16.041Z,12.17
2022-10-30T01:27:16.035Z,12.14
2022-10-30T01:28:16.026Z,12.17
2022-10-30T01:29:16.015Z,12.24
2022-10-30T01:30:16.038Z,12.22
2022-10-30T01:31:15.997Z,12.20
2022-10-30T01:32:15.991Z,12.24
2022-10-30T01:33:15.985Z,12.18
2022-10-30T01:34:15.984Z,12.15
2022-10-30T01:35:15.989Z,12.20
2022-10-30T01:36:15.967Z,12.15
2022-10-30T01:37:15.956Z,12.14
2022-10-30T01:38:15.950Z,12.18
2022-10-30T01:39:15.932Z,12.20
2022-10-30T01:40:15.948Z,12.10
2022-10-30T01:41:15.935Z,12.10
2022-10-30T01:42:15.917Z,12.17
2022-10-30T01:43:15.893Z,12.03
2022-10-30T01:44:15.895Z,12.06
2022-10-30T01:45:15.914Z,12.13
2022-10-30T01:46:15.881Z,12.13
2022-10-30T01:47:15.872Z,12.13
2022-10-30T01:48:15.864Z,11.99
2022-10-30T01:49:15.904Z,11.90
2022-10-30T01:50:15.872Z,11.96
2022-10-30T01:51:15.840Z,11.91
2022-10-30T01:52:15.830Z,11.87
2022-10-30T01:53:15.824Z,11.86
2022-10-30T01:54:15.823Z,11.80
2022-10-30T01:55:15.838Z,11.77
2022-10-30T01:56:15.793Z,11.71
2022-10-30T01:57:15.802Z,11.72
2022-10-30T01:58:15.778Z,11.72
2022-10-30T01:59:15.770Z,11.63
2022-10-30T02:00:15.790Z,11.62
2022-10-30T02:01:15.851Z,11.61
2022-10-30T02:02:15.805Z,11.59
2022-10-30T02:03:15.739Z,11.50
2022-10-30T02:04:15.739Z,11.54
2022-10-30T02:05:15.754Z,11.50
2022-10-30T02:06:15.716Z,11.59
2022-10-30T02:07:15.711Z,11.47
2022-10-30T02:08:15.699Z,11.54
2022-10-30T02:09:15.697Z,11.53
2022-10-30T02:10:15.713Z,11.46
2022-10-30T02:11:15.678Z,11.51
2022-10-30T02:12:15.663Z,11.47
2022-10-30T02:13:15.654Z,11.51
2022-10-30T02:14:15.649Z,11.51
2022-10-30T02:15:15.673Z,11.61
2022-10-30T02:16:15.635Z,11.63
2022-10-30T02:17:15.623Z,11.71
2022-10-30T02:18:15.614Z,11.68
2022-10-30T02:19:15.607Z,11.61
2022-10-30T02:20:15.639Z,11.76
2022-10-30T02:21:15.596Z,11.65
2022-10-30T02:22:15.619Z,11.66
2022-10-30T02:23:15.567Z,11.74
2022-10-30T02:24:15.565Z,11.72
2022-10-30T02:25:15.590Z,11.69
2022-10-30T02:26:15.542Z,11.68
2022-10-30T02:27:15.540Z,11.74
2022-10-30T02:28:15.532Z,11.80
2022-10-30T02:29:15.525Z,11.79
2022-10-30T02:30:15.515Z,11.87
2022-10-30T02:31:15.534Z,11.86
2022-10-30T02:32:15.496Z,11.97
2022-10-30T02:33:15.516Z,11.86
2022-10-30T02:34:15.482Z,11.87
2022-10-30T02:35:15.513Z,12.10
2022-10-30T02:36:15.603Z,11.99
2022-10-30T02:37:15.465Z,12.02
2022-10-30T02:38:15.462Z,11.97
2022-10-30T02:39:15.468Z,12.07
2022-10-30T02:40:15.469Z,12.09
2022-10-30T02:41:15.442Z,12.03
2022-10-30T02:42:15.424Z,11.96
2022-10-30T02:43:15.407Z,12.00
2022-10-30T02:44:15.401Z,11.99
2022-10-30T02:45:15.416Z,12.00
2022-10-30T02:46:15.390Z,12.02
2022-10-30T02:47:15.380Z,11.88
2022-10-30T02:48:15.383Z,11.87
2022-10-30T02:49:15.362Z,11.90
2022-10-30T02:50:15.390Z,11.86
2022-10-30T02:51:15.344Z,11.91
2022-10-30T02:52:15.337Z,11.81
2022-10-30T02:53:15.323Z,11.81
2022-10-30T02:54:15.320Z,11.79
2022-10-30T02:55:15.354Z,11.77
2022-10-30T02:56:15.334Z,11.77
2022-10-30T02:57:15.296Z,11.66
2022-10-30T02:58:15.288Z,11.77
2022-10-30T02:59:15.291Z,11.74
2022-10-30T03:00:15.281Z,11.77
2022-10-30T03:01:15.423Z,11.76
2022-10-30T03:02:15.316Z,11.69
2022-10-30T03:03:17.559Z,11.71
2022-10-30T03:04:15.246Z,11.79
2022-10-30T03:05:15.229Z,11.76
2022-10-30T03:06:15.259Z,11.79
2022-10-30T03:07:15.219Z,11.79
2022-10-30T03:08:15.211Z,11.88
2022-10-30T03:09:15.203Z,11.88
2022-10-30T03:10:15.195Z,11.96
2022-10-30T03:11:15.220Z,12.05
2022-10-30T03:12:15.176Z,12.05
2022-10-30T03:13:15.166Z,12.10
2022-10-30T03:14:15.167Z,12.00
2022-10-30T03:15:15.150Z,12.02
2022-10-30T03:16:15.178Z,11.88
2022-10-30T03:17:15.136Z,12.00
2022-10-30T03:18:15.133Z,11.95
2022-10-30T03:19:15.121Z,11.86
2022-10-30T03:20:15.355Z,11.87
2022-10-30T03:21:15.098Z,11.83
2022-10-30T03:22:15.095Z,11.77
2022-10-30T03:23:15.137Z,11.80
2022-10-30T03:24:15.077Z,11.84
2022-10-30T03:25:15.067Z,11.80
2022-10-30T03:26:15.093Z,11.74
2022-10-30T03:27:15.056Z,11.74
2022-10-30T03:28:15.050Z,11.72
2022-10-30T03:29:15.046Z,11.76
2022-10-30T03:30:15.036Z,11.74
2022-10-30T03:31:15.053Z,11.71
2022-10-30T03:32:15.073Z,11.77
2022-10-30T03:33:15.011Z,11.71
2022-10-30T03:34:15.007Z,11.63
2022-10-30T03:35:15.029Z,11.66
2022-10-30T03:36:14.987Z,11.65
2022-10-30T03:37:14.980Z,11.69
2022-10-30T03:38:14.963Z,11.69
2022-10-30T03:39:14.970Z,11.62
2022-10-30T03:40:14.977Z,11.74
2022-10-30T03:41:14.937Z,11.63
2022-10-30T03:42:14.935Z,11.68
2022-10-30T03:43:14.919Z,11.66
2022-10-30T03:44:14.913Z,11.63
2022-10-30T03:45:14.935Z,11.58
2022-10-30T03:46:14.897Z,11.62
2022-10-30T03:47:14.888Z,11.59
2022-10-30T03:48:14.882Z,11.62
2022-10-30T03:49:14.872Z,11.54
2022-10-30T03:50:14.909Z,11.56
2022-10-30T03:51:14.857Z,11.46
2022-10-30T03:52:14.859Z,11.43
2022-10-30T03:53:14.843Z,11.43
2022-10-30T03:54:14.833Z,11.47
2022-10-30T03:55:14.863Z,11.43
2022-10-30T03:56:14.816Z,11.38
2022-10-30T03:57:14.809Z,11.41
2022-10-30T03:58:14.805Z,11.43
2022-10-30T03:59:14.797Z,11.47
2022-10-30T04:00:14.789Z,11.28
2022-10-30T04:01:14.968Z,11.41
2022-10-30T04:02:15.002Z,11.32
2022-10-30T04:03:14.762Z,11.29
2022-10-30T04:04:14.755Z,11.38
2022-10-30T04:05:14.742Z,11.26
2022-10-30T04:06:14.762Z,11.26
2022-10-30T04:07:14.727Z,11.28
2022-10-30T04:08:14.723Z,11.19
2022-10-30T04:09:14.709Z,11.19
2022-10-30T04:10:19.322Z,11.22
2022-10-30T04:11:15.812Z,11.22
2022-10-30T04:12:14.678Z,11.22
2022-10-30T04:13:14.680Z,11.23
2022-10-30T04:14:14.669Z,11.26
2022-10-30T04:15:14.663Z,11.30
2022-10-30T04:16:14.674Z,11.22
2022-10-30T04:17:14.655Z,11.29
2022-10-30T04:18:14.626Z,11.35
2022-10-30T04:19:14.623Z,11.44
2022-10-30T04:20:14.620Z,11.40
2022-10-30T04:21:14.638Z,11.32
2022-10-30T04:22:14.596Z,11.38
2022-10-30T04:23:14.597Z,11.32
2022-10-30T04:24:14.581Z,11.35
2022-10-30T04:25:14.575Z,11.20
2022-10-30T04:26:14.591Z,11.23
2022-10-30T04:27:14.553Z,11.12
2022-10-30T04:28:14.573Z,11.10
2022-10-30T04:29:14.549Z,11.05
2022-10-30T04:30:14.530Z,11.07
2022-10-30T04:31:14.561Z,11.04
2022-10-30T04:32:14.518Z,11.07
2022-10-30T04:33:14.526Z,11.11
2022-10-30T04:34:14.495Z,11.07
2022-10-30T04:35:14.491Z,11.10
2022-10-30T04:36:14.508Z,11.05
2022-10-30T04:37:14.473Z,11.04
2022-10-30T04:38:14.476Z,11.03
2022-10-30T04:39:14.462Z,11.07
2022-10-30T04:40:14.455Z,11.01
2022-10-30T04:41:14.477Z,11.01
2022-10-30T04:42:14.445Z,10.92
2022-10-30T04:43:14.431Z,10.89
2022-10-30T04:44:14.417Z,10.85
2022-10-30T04:45:15.344Z,10.86
2022-10-30T04:46:15.459Z,10.90
2022-10-30T04:47:14.391Z,10.78
2022-10-30T04:48:14.379Z,10.90
2022-10-30T04:49:14.367Z,10.89
2022-10-30T04:50:14.362Z,10.85
2022-10-30T04:51:14.384Z,10.85
2022-10-30T04:52:14.350Z,10.83
2022-10-30T04:53:14.346Z,10.71
2022-10-30T04:54:14.325Z,10.85
2022-10-30T04:55:14.321Z,10.82
2022-10-30T04:56:14.324Z,10.74
2022-10-30T04:57:14.335Z,10.72
2022-10-30T04:58:14.300Z,10.74
2022-10-30T04:59:14.293Z,10.71
2022-10-30T05:00:14.280Z,10.77
2022-10-30T05:01:14.432Z,10.72
2022-10-30T05:02:14.396Z,10.75
2022-10-30T05:03:14.252Z,10.77
2022-10-30T05:04:14.251Z,10.74
2022-10-30T05:05:14.239Z,10.70
2022-10-30T05:06:14.246Z,10.77
2022-10-30T05:07:14.248Z,10.74
2022-10-30T05:08:14.213Z,10.72
2022-10-30T05:09:14.204Z,10.70
2022-10-30T05:10:14.191Z,10.75
2022-10-30T05:11:14.188Z,10.62
2022-10-30T05:12:14.213Z,10.78
2022-10-30T05:13:14.172Z,10.74
2022-10-30T05:14:14.163Z,10.78
2022-10-30T05:15:14.153Z,10.74
2022-10-30T05:16:14.169Z,10.70
2022-10-30T05:17:14.181Z,10.67
2022-10-30T05:18:14.132Z,10.67
2022-10-30T05:19:14.121Z,10.62
2022-10-30T05:20:16.394Z,10.65
2022-10-30T05:21:14.105Z,10.56
2022-10-30T05:22:14.128Z,10.71
2022-10-30T05:23:14.094Z,10.68
2022-10-30T05:24:14.085Z,10.68
2022-10-30T05:25:14.072Z,10.71
2022-10-30T05:26:14.083Z,10.70
2022-10-30T05:27:14.082Z,10.70
2022-10-30T05:28:14.059Z,10.78
2022-10-30T05:29:14.047Z,10.71
2022-10-30T05:30:14.035Z,10.77
2022-10-30T05:31:14.024Z,10.78
2022-10-30T05:33:15.003Z,10.70
2022-10-30T05:34:14.002Z,10.67
2022-10-30T05:35:13.987Z,10.74
2022-10-30T05:36:13.986Z,10.71
2022-10-30T05:37:14.006Z,10.72
2022-10-30T05:38:13.968Z,10.75
2022-10-30T05:39:13.959Z,10.68
2022-10-30T05:40:13.951Z,10.70
2022-10-30T05:41:13.944Z,10.64
2022-10-30T05:42:14.138Z,10.59
2022-10-30T05:43:14.922Z,10.65
2022-10-30T05:44:13.910Z,10.67
2022-10-30T05:45:13.907Z,10.56
2022-10-30T05:46:13.895Z,10.56
2022-10-30T05:47:13.889Z,10.53
2022-10-30T05:48:13.917Z,10.57
2022-10-30T05:49:13.875Z,10.53
2022-10-30T05:50:13.868Z,10.46
2022-10-30T05:51:13.862Z,10.46
2022-10-30T05:52:13.849Z,10.43
2022-10-30T05:53:13.877Z,10.34
2022-10-30T05:54:13.832Z,10.46
2022-10-30T05:55:13.826Z,10.34
2022-10-30T05:56:13.826Z,10.26
2022-10-30T05:57:13.814Z,10.20
2022-10-30T05:58:13.834Z,10.22
2022-10-30T05:59:13.791Z,10.19
2022-10-30T06:00:13.784Z,10.31
2022-10-30T06:01:13.878Z,10.26
2022-10-30T06:02:13.880Z,10.23
2022-10-30T06:03:13.800Z,10.31
2022-10-30T06:04:13.750Z,10.28
2022-10-30T06:05:13.743Z,10.31
2022-10-30T06:06:13.740Z,10.38
2022-10-30T06:07:13.768Z,10.31
2022-10-30T06:08:13.721Z,10.45
2022-10-30T06:09:13.716Z,10.38
2022-10-30T06:10:13.703Z,10.38
2022-10-30T06:11:13.695Z,10.41
2022-10-30T06:12:13.723Z,10.43
2022-10-30T06:13:13.678Z,10.40
2022-10-30T06:14:13.677Z,10.41
2022-10-30T06:15:13.669Z,10.49
2022-10-30T06:16:13.652Z,10.52
2022-10-30T06:17:13.683Z,10.54
2022-10-30T06:18:13.633Z,10.56
2022-10-30T06:19:18.320Z,10.54
2022-10-30T06:20:13.614Z,10.62
2022-10-30T06:21:13.630Z,10.62
2022-10-30T06:22:13.604Z,10.56
2022-10-30T06:23:13.631Z,10.74
2022-10-30T06:24:13.589Z,10.70
2022-10-30T06:25:13.591Z,10.64
2022-10-30T06:26:13.593Z,10.72
2022-10-30T06:27:13.579Z,10.62
2022-10-30T06:28:13.609Z,10.56
2022-10-30T06:29:13.555Z,10.56
2022-10-30T06:30:13.536Z,10.59
2022-10-30T06:31:13.547Z,10.53
2022-10-30T06:32:14.514Z,10.59
2022-10-30T06:33:13.536Z,10.57
2022-10-30T06:34:13.499Z,10.68
2022-10-30T06:35:13.499Z,10.65
2022-10-30T06:36:13.486Z,10.64
2022-10-30T06:37:13.653Z,10.64
2022-10-30T06:38:13.487Z,10.67
2022-10-30T06:39:13.463Z,10.70
2022-10-30T06:40:13.451Z,10.68
2022-10-30T06:41:13.442Z,10.62
2022-10-30T06:42:13.469Z,10.67
2022-10-30T06:43:13.425Z,10.67
2022-10-30T06:44:13.401Z,10.65
2022-10-30T06:45:14.416Z,10.62
2022-10-30T06:46:13.410Z,10.62
2022-10-30T06:47:13.429Z,10.56
2022-10-30T06:48:13.381Z,10.57
2022-10-30T06:49:13.383Z,10.64
2022-10-30T06:50:13.386Z,10.68
2022-10-30T06:51:13.361Z,10.57
2022-10-30T06:52:13.354Z,10.68
2022-10-30T06:53:13.381Z,10.68
2022-10-30T06:54:13.338Z,10.62
2022-10-30T06:55:13.337Z,10.64
2022-10-30T06:56:13.319Z,10.74
2022-10-30T06:57:13.341Z,10.70
2022-10-30T06:58:13.311Z,10.77
2022-10-30T06:59:13.302Z,10.75
2022-10-30T07:00:13.301Z,10.75
2022-10-30T07:01:13.440Z,10.72
2022-10-30T07:02:13.382Z,10.75
2022-10-30T07:03:13.292Z,10.74
2022-10-30T07:04:13.253Z,10.64
2022-10-30T07:05:13.248Z,10.70
2022-10-30T07:06:13.256Z,10.60
2022-10-30T07:07:13.234Z,10.68
2022-10-30T07:08:13.250Z,10.72
2022-10-30T07:09:13.209Z,10.71
2022-10-30T07:10:13.205Z,10.82
2022-10-30T07:11:13.196Z,10.72
2022-10-30T07:12:13.185Z,10.75
2022-10-30T07:13:13.204Z,10.75
2022-10-30T07:14:13.170Z,10.86
2022-10-30T07:15:13.161Z,10.85
2022-10-30T07:16:13.152Z,10.89
2022-10-30T07:17:13.141Z,10.90
2022-10-30T07:18:13.158Z,10.83
2022-10-30T07:19:13.122Z,10.75
2022-10-30T07:20:13.120Z,10.92
2022-10-30T07:21:13.112Z,10.97
2022-10-30T07:22:13.102Z,11.04
2022-10-30T07:23:13.141Z,10.90
2022-10-30T07:24:13.088Z,11.00
2022-10-30T07:25:13.083Z,11.08
2022-10-30T07:26:13.071Z,11.19
2022-10-30T07:27:13.071Z,11.28
2022-10-30T07:28:13.087Z,11.22
2022-10-30T07:29:13.057Z,11.17
2022-10-30T07:30:13.140Z,11.22
2022-10-30T07:31:13.036Z,11.28
2022-10-30T07:32:13.034Z,11.28
2022-10-30T07:33:13.049Z,11.38
2022-10-30T07:34:13.005Z,11.46
2022-10-30T07:35:13.001Z,11.37
2022-10-30T07:36:12.990Z,11.32
2022-10-30T07:37:12.979Z,11.44
2022-10-30T07:38:13.003Z,11.50
2022-10-30T07:39:12.963Z,11.40
2022-10-30T07:40:13.414Z,11.47
2022-10-30T07:41:13.948Z,11.53
2022-10-30T07:42:12.956Z,11.47
2022-10-30T07:43:12.958Z,11.59
2022-10-30T07:44:12.926Z,11.51
2022-10-30T07:45:12.919Z,11.51
2022-10-30T07:46:12.901Z,11.63
2022-10-30T07:47:12.893Z,11.69
2022-10-30T07:48:12.914Z,11.83
2022-10-30T07:49:12.876Z,11.87
2022-10-30T07:50:12.866Z,11.91
2022-10-30T07:51:12.863Z,12.00
2022-10-30T07:52:16.316Z,12.09
2022-10-30T07:53:13.876Z,12.03
2022-10-30T07:54:12.842Z,12.06
2022-10-30T07:55:12.839Z,12.05
2022-10-30T07:56:12.830Z,12.25
2022-10-30T07:57:12.814Z,12.30
2022-10-30T07:58:12.832Z,12.36
2022-10-30T07:59:12.797Z,12.61
2022-10-30T08:00:12.795Z,12.73
2022-10-30T08:01:12.866Z,12.80
2022-10-30T08:02:12.962Z,13.05
2022-10-30T08:03:12.797Z,13.13
2022-10-30T08:04:12.757Z,13.09
2022-10-30T08:05:12.756Z,13.16
2022-10-30T08:06:12.748Z,13.60
2022-10-30T08:07:12.729Z,13.89
2022-10-30T08:08:12.750Z,14.40
2022-10-30T08:09:12.719Z,14.95
2022-10-30T08:10:12.711Z,15.73
2022-10-30T08:11:12.702Z,16.44
2022-10-30T08:12:12.699Z,17.05
2022-10-30T08:13:12.712Z,17.48
2022-10-30T08:14:12.689Z,17.93
2022-10-30T08:15:12.660Z,18.37
2022-10-30T08:16:12.665Z,18.81
2022-10-30T08:17:12.651Z,19.36
2022-10-30T08:18:12.673Z,19.79
2022-10-30T08:19:12.642Z,19.85
2022-10-30T08:20:12.625Z,20.25
2022-10-30T08:21:12.631Z,20.62
2022-10-30T08:22:12.613Z,20.66
2022-10-30T08:23:12.647Z,20.80
2022-10-30T08:24:12.603Z,21.06
2022-10-30T08:25:12.598Z,21.15
2022-10-30T08:26:12.581Z,21.58
2022-10-30T08:27:12.568Z,21.99
2022-10-30T08:28:12.601Z,22.03
2022-10-30T08:29:12.560Z,21.96
2022-10-30T08:30:12.552Z,22.14
2022-10-30T08:31:12.547Z,22.35
2022-10-30T08:32:12.538Z,22.41
2022-10-30T08:33:12.551Z,22.59
2022-10-30T08:34:12.561Z,22.54
2022-10-30T08:35:15.744Z,22.62
2022-10-30T08:36:13.522Z,22.78
2022-10-30T08:37:12.503Z,22.78
2022-10-30T08:38:12.496Z,23.10
2022-10-30T08:39:12.517Z,23.47
2022-10-30T08:40:12.476Z,23.81
2022-10-30T08:41:12.474Z,24.08
2022-10-30T08:42:12.457Z,24.17
2022-10-30T08:43:12.460Z,23.84
2022-10-30T08:44:12.490Z,23.88
2022-10-30T08:45:12.446Z,23.86
2022-10-30T08:46:12.437Z,23.40
2022-10-30T08:47:12.427Z,23.36
2022-10-30T08:48:12.423Z,23.56
2022-10-30T08:49:12.442Z,23.84
2022-10-30T08:50:12.449Z,23.90
2022-10-30T08:51:12.399Z,24.15
2022-10-30T08:52:12.396Z,24.05
2022-10-30T08:53:12.403Z,24.11
2022-10-30T08:54:12.410Z,24.10
2022-10-30T08:55:12.366Z,23.71
2022-10-30T08:56:12.360Z,23.66
2022-10-30T08:57:12.359Z,22.96
2022-10-30T08:58:12.342Z,22.44
2022-10-30T08:59:15.851Z,22.47
2022-10-30T09:00:13.340Z,23.24
2022-10-30T09:01:12.358Z,23.36
2022-10-30T09:02:12.412Z,22.62
2022-10-30T09:03:12.307Z,22.41
2022-10-30T09:04:12.331Z,22.19
2022-10-30T09:05:12.294Z,22.15
2022-10-30T09:06:12.285Z,21.95
2022-10-30T09:07:13.137Z,21.74
2022-10-30T09:08:12.270Z,21.98
2022-10-30T09:09:12.290Z,22.38
2022-10-30T09:10:12.247Z,22.81
2022-10-30T09:11:12.243Z,22.81
2022-10-30T09:12:12.243Z,22.63
2022-10-30T09:13:12.262Z,22.72
2022-10-30T09:14:12.228Z,23.10
2022-10-30T09:15:12.213Z,23.22
2022-10-30T09:18:14.846Z,23.17
2022-10-30T09:18:38.262Z,23.22
2022-10-30T09:19:39.484Z,23.70
2022-10-30T09:20:39.390Z,24.20
2022-10-30T09:21:39.377Z,24.39
2022-10-30T09:22:39.372Z,24.37
2022-10-30T09:23:39.388Z,24.86
2022-10-30T09:24:39.354Z,25.30
2022-10-30T09:25:39.348Z,25.32
2022-10-30T09:26:39.349Z,25.74
2022-10-30T09:27:39.334Z,25.80
2022-10-30T09:28:39.353Z,25.93
2022-10-30T09:29:39.314Z,26.10
2022-10-30T09:30:39.318Z,25.70
2022-10-30T09:31:39.305Z,26.02
2022-10-30T09:32:39.296Z,26.25
2022-10-30T09:33:39.317Z,26.37
2022-10-30T09:34:39.286Z,26.70
2022-10-30T09:35:39.275Z,27.14
2022-10-30T09:36:39.278Z,26.62
2022-10-30T09:37:39.256Z,26.62
2022-10-30T09:38:39.282Z,26.87
2022-10-30T09:39:39.246Z,26.71
2022-10-30T09:40:39.233Z,26.63
2022-10-30T09:41:39.226Z,26.38
2022-10-30T09:42:39.224Z,26.53
2022-10-30T09:43:39.247Z,26.96
2022-10-30T09:44:39.205Z,27.17
2022-10-30T09:45:39.202Z,27.67
2022-10-30T09:46:39.190Z,27.80
2022-10-30T09:47:39.185Z,27.83
2022-10-30T09:48:39.210Z,27.00
2022-10-30T09:49:39.175Z,27.07
2022-10-30T09:50:39.891Z,27.54
2022-10-30T09:51:39.154Z,27.61
2022-10-30T09:52:39.147Z,27.19
2022-10-30T09:53:39.153Z,27.33
2022-10-30T09:54:39.163Z,27.61
2022-10-30T09:55:39.137Z,27.72
2022-10-30T09:56:39.124Z,28.11
2022-10-30T09:57:39.122Z,28.42
2022-10-30T09:58:39.111Z,28.58
2022-10-30T09:59:39.130Z,28.51
2022-10-30T10:00:39.100Z,28.56
2022-10-30T10:01:39.178Z,28.49
2022-10-30T10:02:39.161Z,28.07
2022-10-30T10:03:39.159Z,27.83
2022-10-30T10:04:39.095Z,27.27
2022-10-30T10:05:39.056Z,27.79
2022-10-30T10:06:39.095Z,27.82
2022-10-30T10:07:39.043Z,28.07
2022-10-30T10:08:39.036Z,28.11
2022-10-30T10:09:39.107Z,28.41
2022-10-30T10:10:39.021Z,28.78
2022-10-30T10:11:39.014Z,28.95
2022-10-30T10:12:39.012Z,28.12
2022-10-30T10:13:39.001Z,28.01
2022-10-30T10:14:39.022Z,28.23
2022-10-30T10:15:38.985Z,28.57
2022-10-30T10:16:38.977Z,28.85
2022-10-30T10:17:38.973Z,29.01
2022-10-30T10:18:38.967Z,29.38
2022-10-30T10:19:38.981Z,29.58
2022-10-30T10:20:38.960Z,29.14
2022-10-30T10:21:38.938Z,28.27
2022-10-30T10:22:39.945Z,28.51
2022-10-30T10:23:38.931Z,28.61
2022-10-30T10:24:38.952Z,29.10
2022-10-30T10:25:38.914Z,29.33
2022-10-30T10:26:38.916Z,29.10
2022-10-30T10:27:39.907Z,29.01
2022-10-30T10:28:38.902Z,29.01
2022-10-30T10:29:38.923Z,29.09
2022-10-30T10:30:38.882Z,29.14
2022-10-30T10:31:38.876Z,29.35
2022-10-30T10:32:38.892Z,29.60
2022-10-30T10:33:38.869Z,29.55
2022-10-30T10:34:38.877Z,29.85
2022-10-30T10:35:38.852Z,29.41
2022-10-30T10:36:38.843Z,28.57
2022-10-30T10:37:38.834Z,28.69
2022-10-30T10:38:38.833Z,28.63
2022-10-30T10:39:38.854Z,28.79
2022-10-30T10:40:38.833Z,28.97
2022-10-30T10:41:38.806Z,29.11
2022-10-30T10:42:38.800Z,29.26
2022-10-30T10:43:38.797Z,29.11
2022-10-30T10:44:38.779Z,29.31
2022-10-30T10:45:38.801Z,29.84
2022-10-30T10:46:38.775Z,29.55
2022-10-30T10:47:38.760Z,28.90
2022-10-30T10:48:38.757Z,29.21
2022-10-30T10:49:40.157Z,29.54
2022-10-30T10:50:39.771Z,29.05
2022-10-30T10:51:38.739Z,29.53
2022-10-30T10:52:38.735Z,29.99
2022-10-30T10:53:38.741Z,30.03
2022-10-30T10:54:38.718Z,30.44
2022-10-30T10:55:38.738Z,30.37
2022-10-30T10:56:38.707Z,30.44
2022-10-30T10:57:38.695Z,30.51
2022-10-30T10:58:38.708Z,30.54
2022-10-30T10:59:38.684Z,30.70
2022-10-30T11:00:38.700Z,30.47
2022-10-30T11:01:38.809Z,29.99
2022-10-30T11:02:38.717Z,29.90
2022-10-30T11:03:38.649Z,29.60
2022-10-30T11:04:38.641Z,29.99
2022-10-30T11:05:38.665Z,30.52
2022-10-30T11:06:38.629Z,30.13
2022-10-30T11:07:38.633Z,30.12
2022-10-30T11:08:38.618Z,29.92
2022-10-30T11:09:38.609Z,29.91
2022-10-30T11:10:38.631Z,30.39
2022-10-30T11:11:38.595Z,30.12
2022-10-30T11:12:38.589Z,30.20
2022-10-30T11:13:38.585Z,29.91
2022-10-30T11:14:38.579Z,30.16
2022-10-30T11:15:38.598Z,30.20
2022-10-30T11:16:38.558Z,30.47
2022-10-30T11:17:38.555Z,30.63
2022-10-30T11:18:38.553Z,30.70
2022-10-30T11:19:38.539Z,30.87
2022-10-30T11:20:38.571Z,31.04
2022-10-30T11:21:38.529Z,31.14
2022-10-30T11:22:38.514Z,30.91
2022-10-30T11:23:38.505Z,30.80
2022-10-30T11:24:38.799Z,30.43
2022-10-30T11:25:38.556Z,30.47
2022-10-30T11:26:38.494Z,30.81
2022-10-30T11:27:38.479Z,31.15
2022-10-30T11:28:38.479Z,30.99
2022-10-30T11:29:38.471Z,31.07
2022-10-30T11:30:38.489Z,31.46
2022-10-30T11:31:38.450Z,31.60
2022-10-30T11:32:38.523Z,31.71
2022-10-30T11:33:38.436Z,31.75
2022-10-30T11:34:38.433Z,31.74
2022-10-30T11:35:38.463Z,31.53
2022-10-30T11:36:38.428Z,31.30
2022-10-30T11:37:38.408Z,31.03
2022-10-30T11:38:38.408Z,31.53
2022-10-30T11:39:38.399Z,31.41
2022-10-30T11:40:38.434Z,31.38
2022-10-30T11:41:38.386Z,31.36
2022-10-30T11:42:38.374Z,31.52
2022-10-30T11:43:38.378Z,31.53
2022-10-30T11:44:38.367Z,31.60
2022-10-30T11:45:38.391Z,31.52
2022-10-30T11:46:38.350Z,31.63
2022-10-30T11:47:38.351Z,31.98
2022-10-30T11:48:38.333Z,32.28
2022-10-30T11:49:38.335Z,32.15
2022-10-30T11:50:38.356Z,32.08
2022-10-30T11:51:38.450Z,32.01
2022-10-30T11:52:38.316Z,31.90
2022-10-30T11:53:38.305Z,32.35
2022-10-30T11:54:38.301Z,32.25
2022-10-30T11:55:38.335Z,32.90
2022-10-30T11:56:38.312Z,33.02
2022-10-30T11:57:38.274Z,32.79
2022-10-30T11:58:38.274Z,32.89
2022-10-30T11:59:38.257Z,32.96
2022-10-30T12:00:38.259Z,32.87
2022-10-30T12:01:38.316Z,33.02
2022-10-30T12:03:38.234Z,32.82
2022-10-30T12:04:38.227Z,32.89
2022-10-30T12:05:38.223Z,33.17
2022-10-30T12:06:38.244Z,32.99
2022-10-30T12:07:38.209Z,32.95
2022-10-30T12:08:38.203Z,32.65
2022-10-30T12:09:38.195Z,32.64
2022-10-30T12:10:38.190Z,32.75
2022-10-30T12:11:38.209Z,32.80
2022-10-30T12:12:38.172Z,32.72
2022-10-30T12:13:38.162Z,32.82
2022-10-30T12:14:38.155Z,32.80
2022-10-30T12:15:38.145Z,32.33
2022-10-30T12:16:38.168Z,32.37
2022-10-30T12:17:38.136Z,32.37
2022-10-30T12:18:38.136Z,32.33
2022-10-30T12:19:38.126Z,32.55
2022-10-30T12:20:38.117Z,32.56
2022-10-30T12:21:38.144Z,32.43
2022-10-30T12:22:38.109Z,32.08
2022-10-30T12:23:38.093Z,32.16
2022-10-30T12:24:38.088Z,32.08
2022-10-30T12:25:38.083Z,31.63
2022-10-30T12:26:38.105Z,31.90
2022-10-30T12:27:38.082Z,32.23
2022-10-30T12:28:38.072Z,32.30
2022-10-30T12:30:02.791Z,31.77
2022-10-30T12:30:40.048Z,31.74
2022-10-30T12:31:38.075Z,31.78
2022-10-30T12:32:39.752Z,31.97
2022-10-30T12:33:39.027Z,32.31
2022-10-30T12:34:38.024Z,31.93
2022-10-30T12:35:38.016Z,31.49
2022-10-30T12:36:38.037Z,31.59
2022-10-30T12:37:38.007Z,31.52
2022-10-30T12:38:38.001Z,31.71
2022-10-30T12:39:38.046Z,31.87
2022-10-30T12:40:37.976Z,31.98
2022-10-30T12:41:38.005Z,32.16
2022-10-30T12:42:37.976Z,31.51
2022-10-30T12:43:37.964Z,31.36
2022-10-30T12:44:37.953Z,31.74
2022-10-30T12:45:37.952Z,32.18
2022-10-30T12:46:37.971Z,32.12
2022-10-30T12:47:37.935Z,32.35
2022-10-30T12:48:37.936Z,32.16
2022-10-30T12:49:37.926Z,32.25
2022-10-30T12:50:37.913Z,31.81
2022-10-30T12:51:37.941Z,31.87
2022-10-30T12:52:37.904Z,31.66
2022-10-30T12:53:37.896Z,31.60
2022-10-30T12:54:37.895Z,31.59
2022-10-30T12:55:37.900Z,31.51
2022-10-30T12:56:37.913Z,31.91